Agricola, Mississippi
Current Conditions -  °F | °C
As of 9:56 PM on Wednesday 26 Nov 2014 (Local Time) from KMOB Reporting Station
Clear Clear  
Wind Chill: 12°   Ceiling: Unl
Heat Index: 12°   Visibility: 10mi
Dew Point:   Wind: 8mph
Humidity: 69%   Direction: 240°WSW
Pressure: 30.21"   Gusts: NA
Location:  30.8443°N, 88.5703°W
Report Text: KMOB 270356Z 24007KT 10SM CLR 12/07 A3021 RMK AO2 SLP231 T01220067
Loading
Personal Weather Stations






























Interactive Weather Map New forecast layout! Learn more

10-Day Weather Forecast

Advertisements
Track Severe Weather on mobile